AXB201Q VOBL-VAID
Flight info
| Callsign | AXB201Q |
|---|---|
| Flight time | N/A |
| Altitude | 34000 |
| Route | OPAMO7B OPAMO W56 BBI DCT APUSU W18 MELAX DCT JLG W79 UPMAV |
| Aircraft | B738/M-SDE2E3FGHIRWXY/LB1 |
Departure
| Time | 2026-05-04 04:59 |
|---|---|
| Airport | Kempegowda International Airport Bengaluru (VOBL) |
Arrival
| Time | N/A |
|---|---|
| Airport | Devi Ahilya Bai Holkar International Airport (VAID) |
| Time | Latitude | Longitude | Altitude | Speed | Heading |
|---|---|---|---|---|---|
| 2026-05-04 04:32 | 13.20332 | 77.71923 | 2947 ft | 0 kts | 0° |
| 2026-05-04 04:49 | 13.20310 | 77.71923 | 2947 ft | 2 kts | 0° |
| 2026-05-04 04:49 | 13.20295 | 77.71923 | 2948 ft | 2 kts | 360° |
| 2026-05-04 04:49 | 13.20279 | 77.71923 | 2949 ft | 2 kts | 18° |
| 2026-05-04 04:49 | 13.20266 | 77.71915 | 2949 ft | 2 kts | 46° |
| 2026-05-04 04:50 | 13.20258 | 77.71901 | 2949 ft | 2 kts | 73° |
| 2026-05-04 04:50 | 13.20256 | 77.71892 | 2950 ft | 1 kts | 90° |
| 2026-05-04 04:50 | 13.20256 | 77.71886 | 2950 ft | 0 kts | 90° |
| 2026-05-04 04:52 | 13.20256 | 77.71901 | 2950 ft | 4 kts | 90° |
| 2026-05-04 04:52 | 13.20256 | 77.71954 | 2949 ft | 8 kts | 90° |
| 2026-05-04 04:53 | 13.20256 | 77.72006 | 2949 ft | 5 kts | 89° |
| 2026-05-04 04:53 | 13.20257 | 77.72041 | 2949 ft | 3 kts | 88° |
| 2026-05-04 04:53 | 13.20257 | 77.72063 | 2948 ft | 3 kts | 89° |
| 2026-05-04 04:53 | 13.20261 | 77.72098 | 2948 ft | 2 kts | 76° |
| 2026-05-04 04:54 | 13.20295 | 77.72109 | 2947 ft | 12 kts | 2° |
| 2026-05-04 04:54 | 13.20379 | 77.72111 | 2944 ft | 11 kts | 1° |
| 2026-05-04 04:54 | 13.20431 | 77.72145 | 2942 ft | 8 kts | 80° |
| 2026-05-04 04:55 | 13.20433 | 77.72197 | 2942 ft | 5 kts | 88° |
| 2026-05-04 04:55 | 13.20435 | 77.72231 | 2942 ft | 5 kts | 83° |
| 2026-05-04 04:55 | 13.20457 | 77.72288 | 2941 ft | 9 kts | 30° |
| 2026-05-04 04:55 | 13.20516 | 77.72286 | 2940 ft | 10 kts | 351° |
| 2026-05-04 04:56 | 13.20602 | 77.72282 | 2939 ft | 11 kts | 1° |
| 2026-05-04 04:56 | 13.20664 | 77.72269 | 2939 ft | 7 kts | 322° |
| 2026-05-04 04:56 | 13.20684 | 77.72212 | 2938 ft | 8 kts | 271° |
| 2026-05-04 04:56 | 13.20684 | 77.72206 | 2938 ft | 0 kts | 270° |
| 2026-05-04 04:57 | 13.20684 | 77.72205 | 2938 ft | 0 kts | 270° |
| 2026-05-04 04:57 | 13.20685 | 77.72087 | 2938 ft | 39 kts | 271° |
| 2026-05-04 04:57 | 13.20693 | 77.71623 | 2935 ft | 88 kts | 270° |
| 2026-05-04 04:58 | 13.20697 | 77.70851 | 2963 ft | 122 kts | 271° |
| 2026-05-04 04:58 | 13.20705 | 77.69859 | 2997 ft | 150 kts | 272° |
| 2026-05-04 04:58 | 13.20717 | 77.68700 | 3079 ft | 166 kts | 270° |
| 2026-05-04 04:58 | 13.20695 | 77.67501 | 3340 ft | 169 kts | 269° |
| 2026-05-04 04:59 | 13.20673 | 77.66237 | 3514 ft | 176 kts | 271° |
| 2026-05-04 04:59 | 13.20684 | 77.64907 | 4055 ft | 187 kts | 271° |
| 2026-05-04 04:59 | 13.20810 | 77.63625 | 4909 ft | 181 kts | 291° |
| 2026-05-04 04:59 | 13.21667 | 77.62583 | 5200 ft | 203 kts | 327° |
| 2026-05-04 05:00 | 13.22874 | 77.61693 | 5632 ft | 221 kts | 311° |
| 2026-05-04 05:00 | 13.23520 | 77.60142 | 5878 ft | 250 kts | 272° |
| 2026-05-04 05:00 | 13.22509 | 77.56462 | 7016 ft | 280 kts | 267° |
| 2026-05-04 05:01 | 13.22864 | 77.54513 | 7795 ft | 280 kts | 300° |
| 2026-05-04 05:01 | 13.24198 | 77.53047 | 8599 ft | 282 kts | 331° |
| 2026-05-04 05:01 | 13.26106 | 77.52541 | 9361 ft | 285 kts | 2° |
| 2026-05-04 05:01 | 13.28119 | 77.52792 | 10233 ft | 286 kts | 4° |
| 2026-05-04 05:02 | 13.30164 | 77.52554 | 10482 ft | 309 kts | 340° |
| 2026-05-04 05:02 | 13.32206 | 77.51502 | 10862 ft | 327 kts | 333° |
| 2026-05-04 05:02 | 13.34374 | 77.50525 | 11027 ft | 348 kts | 341° |
| 2026-05-04 05:02 | 13.36741 | 77.49740 | 11740 ft | 351 kts | 343° |
| 2026-05-04 05:03 | 13.39132 | 77.48991 | 12236 ft | 361 kts | 344° |
| 2026-05-04 05:03 | 13.41549 | 77.48250 | 12999 ft | 361 kts | 344° |
| 2026-05-04 05:04 | 13.49022 | 77.46012 | 14910 ft | 372 kts | 345° |
| 2026-05-04 05:04 | 13.51549 | 77.45263 | 15515 ft | 375 kts | 345° |
| 2026-05-04 05:04 | 13.54111 | 77.44505 | 16118 ft | 378 kts | 345° |
| 2026-05-04 05:06 | 13.72542 | 77.39056 | 19848 ft | 396 kts | 346° |
| 2026-05-04 05:06 | 13.75252 | 77.38283 | 19938 ft | 392 kts | 346° |
| 2026-05-04 05:06 | 13.77892 | 77.37523 | 19988 ft | 388 kts | 346° |
| 2026-05-04 05:07 | 13.80546 | 77.36750 | 20040 ft | 385 kts | 346° |
| 2026-05-04 05:07 | 13.83136 | 77.35992 | 20091 ft | 383 kts | 346° |
| 2026-05-04 05:07 | 13.85727 | 77.35229 | 20142 ft | 380 kts | 346° |
| 2026-05-04 05:09 | 14.05415 | 77.29382 | 20325 ft | 347 kts | 346° |
| 2026-05-04 05:09 | 14.07783 | 77.28685 | 20019 ft | 357 kts | 345° |
| 2026-05-04 05:10 | 14.10249 | 77.27955 | 20018 ft | 356 kts | 345° |
| 2026-05-04 05:10 | 14.12633 | 77.27249 | 20052 ft | 355 kts | 345° |
| 2026-05-04 05:10 | 14.15034 | 77.26538 | 20046 ft | 355 kts | 345° |
| 2026-05-04 05:10 | 14.17455 | 77.25820 | 20047 ft | 356 kts | 345° |
| 2026-05-04 05:11 | 14.19830 | 77.25115 | 20047 ft | 356 kts | 345° |
| 2026-05-04 05:11 | 14.22252 | 77.24397 | 20047 ft | 356 kts | 345° |
| 2026-05-04 05:11 | 14.24665 | 77.23680 | 20047 ft | 356 kts | 345° |
| 2026-05-04 05:11 | 14.27050 | 77.22972 | 20047 ft | 356 kts | 345° |
| 2026-05-04 05:12 | 14.29462 | 77.22255 | 20047 ft | 356 kts | 345° |
| 2026-05-04 05:12 | 14.31885 | 77.21536 | 20047 ft | 356 kts | 345° |
| 2026-05-04 05:12 | 14.34285 | 77.20822 | 20047 ft | 356 kts | 345° |
| 2026-05-04 05:12 | 14.36691 | 77.20106 | 20047 ft | 356 kts | 345° |
| 2026-05-04 05:13 | 14.39108 | 77.19384 | 20043 ft | 353 kts | 345° |
| 2026-05-04 05:13 | 14.41513 | 77.18671 | 20047 ft | 354 kts | 345° |
| 2026-05-04 05:13 | 14.43915 | 77.17957 | 20047 ft | 354 kts | 345° |
| 2026-05-04 05:13 | 14.46290 | 77.17251 | 20047 ft | 355 kts | 345° |
| 2026-05-04 05:14 | 14.48702 | 77.16533 | 20047 ft | 355 kts | 345° |
| 2026-05-04 05:14 | 14.51121 | 77.15813 | 20047 ft | 355 kts | 345° |
| 2026-05-04 05:14 | 14.53525 | 77.15098 | 20047 ft | 356 kts | 345° |
| 2026-05-04 05:14 | 14.55958 | 77.14373 | 20047 ft | 356 kts | 345° |
| 2026-05-04 05:15 | 14.58352 | 77.13660 | 20044 ft | 356 kts | 345° |
| 2026-05-04 05:15 | 14.60783 | 77.12936 | 20035 ft | 357 kts | 345° |
| 2026-05-04 05:15 | 14.63212 | 77.12212 | 20027 ft | 357 kts | 345° |
| 2026-05-04 05:15 | 14.65630 | 77.11491 | 20021 ft | 357 kts | 345° |
| 2026-05-04 05:16 | 14.68036 | 77.10774 | 20015 ft | 357 kts | 345° |
| 2026-05-04 05:16 | 14.70470 | 77.10047 | 20012 ft | 357 kts | 345° |
| 2026-05-04 05:16 | 14.72871 | 77.09331 | 20010 ft | 358 kts | 345° |
| 2026-05-04 05:16 | 14.75285 | 77.08610 | 20000 ft | 358 kts | 345° |
| 2026-05-04 05:17 | 14.77720 | 77.07883 | 19985 ft | 359 kts | 345° |
| 2026-05-04 05:17 | 14.80169 | 77.07152 | 19967 ft | 359 kts | 345° |
| 2026-05-04 05:17 | 14.82608 | 77.06424 | 19949 ft | 360 kts | 345° |
| 2026-05-04 05:17 | 14.85035 | 77.05698 | 19928 ft | 360 kts | 345° |
| 2026-05-04 05:18 | 14.87497 | 77.04963 | 19906 ft | 361 kts | 345° |
| 2026-05-04 05:18 | 14.89925 | 77.04238 | 19888 ft | 361 kts | 345° |
| 2026-05-04 05:18 | 14.92402 | 77.03497 | 19885 ft | 361 kts | 345° |
| 2026-05-04 05:18 | 14.94826 | 77.02773 | 19887 ft | 361 kts | 345° |
| 2026-05-04 05:19 | 14.97281 | 77.02039 | 19889 ft | 361 kts | 345° |
| 2026-05-04 05:19 | 14.99748 | 77.01301 | 19890 ft | 361 kts | 345° |
| 2026-05-04 05:19 | 15.02187 | 77.00571 | 19889 ft | 361 kts | 345° |
| 2026-05-04 05:19 | 15.04634 | 76.99839 | 19886 ft | 361 kts | 345° |
| 2026-05-04 05:20 | 15.07122 | 76.99359 | 19868 ft | 358 kts | 2° |
| 2026-05-04 05:20 | 15.09558 | 76.99944 | 19881 ft | 354 kts | 29° |
| 2026-05-04 05:20 | 15.11568 | 77.01417 | 19913 ft | 352 kts | 38° |
| 2026-05-04 05:20 | 15.13594 | 77.02899 | 19889 ft | 353 kts | 33° |
| 2026-05-04 05:21 | 15.15703 | 77.04292 | 19882 ft | 353 kts | 33° |
| 2026-05-04 05:21 | 15.17809 | 77.05682 | 19882 ft | 354 kts | 33° |
| 2026-05-04 05:21 | 15.19927 | 77.07082 | 19883 ft | 354 kts | 33° |
| 2026-05-04 05:21 | 15.22051 | 77.08485 | 19884 ft | 354 kts | 33° |
| 2026-05-04 05:22 | 15.24157 | 77.09874 | 19884 ft | 354 kts | 33° |
| 2026-05-04 05:22 | 15.26248 | 77.11252 | 19884 ft | 354 kts | 33° |
| 2026-05-04 05:22 | 15.28372 | 77.12651 | 19885 ft | 354 kts | 33° |
| 2026-05-04 05:22 | 15.30469 | 77.14033 | 19884 ft | 354 kts | 33° |
| 2026-05-04 05:23 | 15.32605 | 77.15440 | 19885 ft | 354 kts | 33° |
| 2026-05-04 05:23 | 15.34717 | 77.16831 | 19884 ft | 355 kts | 33° |
| 2026-05-04 05:23 | 15.36835 | 77.18227 | 19885 ft | 355 kts | 33° |
| 2026-05-04 05:23 | 15.38914 | 77.19597 | 19884 ft | 355 kts | 33° |
| 2026-05-04 05:24 | 15.41030 | 77.20991 | 19885 ft | 355 kts | 33° |
| 2026-05-04 05:24 | 15.43161 | 77.22396 | 19885 ft | 355 kts | 33° |
| 2026-05-04 05:24 | 15.45264 | 77.23783 | 19884 ft | 355 kts | 33° |
| 2026-05-04 05:24 | 15.47400 | 77.25192 | 19885 ft | 355 kts | 33° |
| 2026-05-04 05:25 | 15.49485 | 77.26567 | 19884 ft | 355 kts | 33° |
| 2026-05-04 05:25 | 15.51601 | 77.27964 | 19885 ft | 355 kts | 33° |
| 2026-05-04 05:25 | 15.53719 | 77.29363 | 19885 ft | 355 kts | 33° |
| 2026-05-04 05:25 | 15.55804 | 77.30739 | 19884 ft | 355 kts | 33° |
| 2026-05-04 05:26 | 15.57917 | 77.32134 | 19885 ft | 355 kts | 33° |
| 2026-05-04 05:26 | 15.60035 | 77.33533 | 19885 ft | 355 kts | 33° |
| 2026-05-04 05:26 | 15.62157 | 77.34934 | 19885 ft | 355 kts | 33° |
| 2026-05-04 05:26 | 15.64283 | 77.36340 | 19884 ft | 355 kts | 33° |
| 2026-05-04 05:27 | 15.66385 | 77.37729 | 19885 ft | 355 kts | 33° |
| 2026-05-04 05:28 | 15.81164 | 77.47507 | 19943 ft | 354 kts | 33° |
| 2026-05-04 05:29 | 15.83296 | 77.48919 | 19954 ft | 353 kts | 33° |
| 2026-05-04 05:29 | 15.85399 | 77.50312 | 19963 ft | 353 kts | 33° |
| 2026-05-04 05:29 | 15.87498 | 77.51703 | 19966 ft | 353 kts | 33° |
| 2026-05-04 05:29 | 15.89608 | 77.53101 | 19966 ft | 353 kts | 33° |
| 2026-05-04 05:31 | 16.04333 | 77.62872 | 19966 ft | 354 kts | 33° |
| 2026-05-04 05:31 | 16.06412 | 77.64252 | 19966 ft | 354 kts | 33° |
| 2026-05-04 05:32 | 16.08536 | 77.65663 | 19966 ft | 354 kts | 33° |
| 2026-05-04 05:32 | 16.10612 | 77.67042 | 19966 ft | 354 kts | 33° |
| 2026-05-04 05:32 | 16.12712 | 77.68439 | 19966 ft | 354 kts | 33° |
| 2026-05-04 05:33 | 16.16934 | 77.71247 | 19966 ft | 354 kts | 33° |
| 2026-05-04 05:33 | 16.19064 | 77.72664 | 19966 ft | 355 kts | 33° |
| 2026-05-04 05:33 | 16.21164 | 77.74062 | 19966 ft | 355 kts | 33° |
| 2026-05-04 05:33 | 16.23277 | 77.75467 | 19966 ft | 355 kts | 33° |
| 2026-05-04 05:34 | 16.25372 | 77.76862 | 19966 ft | 355 kts | 33° |
| 2026-05-04 05:34 | 16.27472 | 77.78261 | 19966 ft | 355 kts | 33° |
| 2026-05-04 05:34 | 16.29589 | 77.79671 | 19966 ft | 355 kts | 33° |
| 2026-05-04 05:34 | 16.31697 | 77.81075 | 19966 ft | 355 kts | 33° |
| 2026-05-04 05:35 | 16.33824 | 77.82492 | 19966 ft | 355 kts | 33° |
| 2026-05-04 05:35 | 16.35944 | 77.83905 | 19965 ft | 356 kts | 33° |
| 2026-05-04 05:35 | 16.38060 | 77.85317 | 19966 ft | 356 kts | 33° |
| 2026-05-04 05:35 | 16.40195 | 77.86741 | 19966 ft | 356 kts | 33° |
| 2026-05-04 05:36 | 16.42312 | 77.88152 | 19966 ft | 356 kts | 33° |
| 2026-05-04 05:36 | 16.44404 | 77.89548 | 19966 ft | 356 kts | 33° |
| 2026-05-04 05:36 | 16.46522 | 77.90962 | 19966 ft | 356 kts | 33° |
| 2026-05-04 05:36 | 16.48666 | 77.92394 | 19966 ft | 356 kts | 33° |
| 2026-05-04 05:37 | 16.50771 | 77.93799 | 19966 ft | 356 kts | 33° |
| 2026-05-04 05:37 | 16.52875 | 77.95205 | 19946 ft | 357 kts | 33° |
| 2026-05-04 05:37 | 16.55024 | 77.96626 | 19235 ft | 365 kts | 32° |
| 2026-05-04 05:38 | 16.59458 | 77.99544 | 17426 ft | 376 kts | 32° |
| 2026-05-04 05:38 | 16.61699 | 78.01032 | 16602 ft | 378 kts | 32° |
| 2026-05-04 05:38 | 16.63941 | 78.02526 | 15948 ft | 375 kts | 32° |
| 2026-05-04 05:38 | 16.66133 | 78.03989 | 15258 ft | 373 kts | 32° |
| 2026-05-04 05:39 | 16.68342 | 78.05465 | 14621 ft | 370 kts | 32° |
| 2026-05-04 05:39 | 16.72684 | 78.08370 | 13466 ft | 359 kts | 32° |
| 2026-05-04 05:39 | 16.74768 | 78.09766 | 13304 ft | 344 kts | 32° |
| 2026-05-04 05:40 | 16.78770 | 78.12448 | 12341 ft | 335 kts | 32° |
| 2026-05-04 05:40 | 16.80768 | 78.13787 | 11799 ft | 332 kts | 32° |
| 2026-05-04 05:40 | 16.82712 | 78.15092 | 11288 ft | 329 kts | 32° |
| 2026-05-04 05:41 | 16.84655 | 78.16395 | 10756 ft | 327 kts | 32° |
| 2026-05-04 05:41 | 16.86592 | 78.17694 | 10234 ft | 325 kts | 31° |
| 2026-05-04 05:41 | 16.88521 | 78.18989 | 9699 ft | 323 kts | 31° |